Time;durP1;ratioP1;P1;durP2;ratioP2;P2;SDS_P1;SDS_P2;PMS_P1;PMS_P2;Temp;Humidity;BMP_temperature;BMP_pressure;BME280_temperature;BME280_humidity;BME280_pressure;Samples;Min_cycle;Max_cycle;Signal;HPM_P1;HPM_P2
2022/05/24 00:01:07;;;;;;;12.95;7.00;;;;;;;15.48;81.01;100136.75;6267127;22;20091;-63
2022/05/24 00:03:32;;;;;;;14.32;6.38;;;;;;;15.50;80.46;100134.88;6267243;22;20007;-63
2022/05/24 00:05:57;;;;;;;15.05;6.55;;;;;;;15.53;80.49;100124.88;6268690;22;20050;-62
2022/05/24 00:08:23;;;;;;;11.55;5.82;;;;;;;15.56;80.19;100122.97;6240580;22;20019;-64
2022/05/24 00:10:48;;;;;;;13.25;6.65;;;;;;;15.50;80.32;100125.06;6268271;22;20004;-64
2022/05/24 00:13:14;;;;;;;11.07;5.60;;;;;;;15.53;80.43;100118.69;6266548;22;20078;-64
2022/05/24 00:15:40;;;;;;;12.35;6.22;;;;;;;15.50;80.55;100125.06;6267711;22;20007;-63
2022/05/24 00:18:07;;;;;;;11.13;5.53;;;;;;;15.51;80.20;100123.28;6267248;22;20065;-64
2022/05/24 00:20:48;;;;;;;11.18;5.40;;;;;;;15.52;80.14;100122.31;6267852;22;20065;-65
2022/05/24 00:23:13;;;;;;;8.13;5.20;;;;;;;15.45;80.34;100129.84;6267998;22;20003;-64
2022/05/24 00:25:45;;;;;;;16.58;5.55;;;;;;;15.41;80.07;100126.53;6268321;22;20000;-61
2022/05/24 00:28:11;;;;;;;14.50;5.32;;;;;;;15.33;79.74;100120.03;6266478;22;20007;-63
2022/05/24 00:30:37;;;;;;;15.93;4.70;;;;;;;15.29;79.73;100127.34;6240442;22;20432;-63
2022/05/24 00:33:03;;;;;;;13.52;5.32;;;;;;;15.29;79.75;100132.63;6266175;22;20064;-64
2022/05/24 00:35:28;;;;;;;17.27;4.43;;;;;;;15.26;79.75;100132.88;6240258;22;20435;-63
2022/05/24 00:37:54;;;;;;;18.33;4.82;;;;;;;15.22;80.38;100126.03;6268345;22;20490;-64
2022/05/24 00:41:02;;;;;;;17.42;4.88;;;;;;;15.27;80.02;100126.59;6267617;22;20006;-63
2022/05/24 00:43:40;;;;;;;17.38;5.05;;;;;;;15.28;80.01;100123.84;6118622;23;20133;-64
2022/05/24 00:46:18;;;;;;;14.75;4.82;;;;;;;15.35;80.12;100121.63;6231048;22;20083;-64
2022/05/24 00:48:59;;;;;;;18.70;5.72;;;;;;;15.36;80.25;100111.88;6240844;22;20008;-64
2022/05/24 00:51:37;;;;;;;21.23;5.55;;;;;;;15.39;80.30;100101.88;6240858;22;20343;-62
2022/05/24 00:54:03;;;;;;;23.55;7.60;;;;;;;15.38;80.30;100100.19;6240533;22;20403;-64
2022/05/24 00:56:41;;;;;;;22.35;8.70;;;;;;;15.34;80.35;100101.34;6267891;22;20000;-64
2022/05/24 00:59:08;;;;;;;26.00;10.30;;;;;;;15.29;80.35;100100.78;6238936;22;20327;-63
2022/05/24 01:01:40;;;;;;;25.65;11.68;;;;;;;15.31;80.26;100112.16;6266824;22;20004;-63
2022/05/24 01:04:08;;;;;;;24.25;12.13;;;;;;;15.26;80.51;100122.25;6239365;22;20083;-63
2022/05/24 01:06:34;;;;;;;32.97;12.20;;;;;;;15.24;80.60;100129.44;6267504;22;20099;-64
2022/05/24 01:09:04;;;;;;;28.33;12.25;;;;;;;15.23;80.44;100131.25;6266835;22;20016;-63
2022/05/24 01:11:31;;;;;;;23.60;10.70;;;;;;;15.19;80.35;100135.06;6241043;22;20004;-63
2022/05/24 01:13:57;;;;;;;23.50;11.50;;;;;;;14.98;80.65;100134.63;6265115;22;20371;-64
2022/05/24 01:16:22;;;;;;;18.67;9.70;;;;;;;15.10;79.71;100144.47;6266819;22;20068;-64
2022/05/24 01:18:48;;;;;;;26.30;9.45;;;;;;;15.10;79.08;100132.97;6265012;22;20054;-62
2022/05/24 01:21:15;;;;;;;26.63;9.13;;;;;;;15.13;78.68;100136.31;6267081;22;20095;-64
2022/05/24 01:23:55;;;;;;;24.65;8.00;;;;;;;15.14;78.44;100130.03;6240152;22;19988;-63
2022/05/24 01:26:39;;;;;;;20.45;7.72;;;;;;;15.15;78.23;100118.47;6266924;22;20059;-64
2022/05/24 01:29:06;;;;;;;18.55;7.63;;;;;;;15.13;77.83;100131.00;6264934;22;20378;-64
2022/05/24 01:37:03;;;;;;;19.23;6.63;;;;;;;15.10;77.24;100130.34;6244043;22;20348;-63
2022/05/24 01:39:29;;;;;;;24.25;8.20;;;;;;;15.03;77.27;100143.16;6267627;22;20015;-63
2022/05/24 01:41:54;;;;;;;16.80;6.57;;;;;;;15.04;77.21;100123.63;6266544;22;20003;-62
2022/05/24 01:44:25;;;;;;;22.27;7.13;;;;;;;15.00;76.71;100130.09;6266249;22;20035;-63
2022/05/24 01:46:50;;;;;;;18.95;6.35;;;;;;;15.05;77.06;100135.94;6266483;22;20008;-64
2022/05/24 01:49:23;;;;;;;13.75;6.18;;;;;;;15.04;76.50;100126.28;6267216;22;20011;-65
2022/05/24 01:51:55;;;;;;;15.48;5.80;;;;;;;15.02;76.43;100125.53;6267687;22;20000;-63
2022/05/24 01:54:21;;;;;;;14.73;5.88;;;;;;;14.96;76.52;100110.84;6267071;22;20065;-64
2022/05/24 01:56:50;;;;;;;20.52;6.90;;;;;;;15.01;76.50;100108.75;6266232;22;19999;-63
2022/05/24 01:59:16;;;;;;;14.98;7.20;;;;;;;14.87;76.90;100111.47;6264705;22;20010;-63
2022/05/24 02:01:49;;;;;;;23.30;7.70;;;;;;;14.90;77.07;100109.44;6239134;22;20429;-64
2022/05/24 02:04:16;;;;;;;17.70;8.13;;;;;;;14.91;76.70;100110.31;6239777;22;20053;-64
2022/05/24 02:06:42;;;;;;;20.63;8.10;;;;;;;14.86;77.39;100115.03;6266185;22;20079;-64
2022/05/24 02:09:08;;;;;;;14.38;7.78;;;;;;;14.77;77.50;100112.00;6266533;22;20419;-63
2022/05/24 02:11:34;;;;;;;23.10;9.63;;;;;;;14.75;77.96;100115.72;6266807;22;20000;-63
2022/05/24 02:14:11;;;;;;;20.40;8.45;;;;;;;14.83;78.01;100120.53;6266892;22;20026;-63
2022/05/24 02:16:41;;;;;;;27.42;10.93;;;;;;;14.55;79.08;100117.81;6267507;22;20105;-64
2022/05/24 02:19:07;;;;;;;16.80;7.93;;;;;;;14.79;78.48;100119.91;6239991;22;20335;-62
2022/05/24 02:21:32;;;;;;;23.52;8.95;;;;;;;14.82;78.11;100114.41;6238731;22;20004;-63
2022/05/24 02:23:57;;;;;;;23.63;9.00;;;;;;;14.81;78.17;100117.97;6267275;22;20004;-62
2022/05/24 02:26:23;;;;;;;24.83;9.15;;;;;;;14.89;78.39;100117.50;6266765;22;20027;-63
2022/05/24 02:28:52;;;;;;;22.30;9.40;;;;;;;14.93;78.35;100112.88;6266502;22;20003;-63
2022/05/24 02:31:18;;;;;;;23.02;8.75;;;;;;;14.94;77.94;100111.91;6239325;22;20010;-63
2022/05/24 02:33:45;;;;;;;28.83;10.40;;;;;;;14.88;78.17;100103.41;6239478;22;20424;-63
2022/05/24 02:36:11;;;;;;;19.80;9.30;;;;;;;14.97;78.15;100103.75;6264408;22;20004;-63
2022/05/24 02:38:37;;;;;;;19.67;8.88;;;;;;;14.91;78.13;100097.88;6265703;22;20383;-64
2022/05/24 02:43:47;;;;;;;19.20;9.05;;;;;;;14.87;78.18;100091.06;6267781;22;20022;-62
2022/05/24 02:46:12;;;;;;;21.15;10.50;;;;;;;14.89;78.47;100098.94;6267481;22;19999;-62
2022/05/24 02:48:38;;;;;;;21.60;10.18;;;;;;;14.87;78.69;100112.28;6269247;22;20007;-63
2022/05/24 02:51:12;;;;;;;23.65;11.02;;;;;;;14.81;78.90;100102.06;6268886;22;20444;-63
2022/05/24 02:53:41;;;;;;;22.73;11.10;;;;;;;14.93;78.42;100104.91;6268831;22;20010;-62
2022/05/24 02:56:07;;;;;;;18.88;9.65;;;;;;;14.95;78.47;100108.28;6268106;22;20003;-63
2022/05/24 02:58:33;;;;;;;22.50;10.45;;;;;;;14.85;78.75;100098.28;6268106;22;20003;-62
2022/05/24 03:00:58;;;;;;;23.05;11.02;;;;;;;14.86;78.48;100113.25;6267748;22;20480;-63
2022/05/24 03:03:24;;;;;;;20.10;10.15;;;;;;;14.79;78.74;100111.94;6266014;22;19999;-63
2022/05/24 03:05:49;;;;;;;23.38;10.32;;;;;;;14.73;79.13;100109.63;6241207;22;20007;-62
2022/05/24 03:10:59;;;;;;;22.00;10.18;;;;;;;14.56;79.72;100119.50;6268498;22;20015;-62
2022/05/24 03:16:09;;;;;;;23.23;11.88;;;;;;;14.37;80.46;100104.75;6245051;22;20023;-63
2022/05/24 03:18:34;;;;;;;27.70;10.27;;;;;;;14.36;80.17;100108.34;6268162;22;20004;-65
2022/05/24 03:21:00;;;;;;;20.60;10.07;;;;;;;14.33;80.54;100113.81;6269417;22;19999;-63
2022/05/24 03:23:25;;;;;;;24.30;10.52;;;;;;;14.26;80.89;100121.31;6268249;22;20004;-62
2022/05/24 03:25:50;;;;;;;21.10;9.82;;;;;;;14.26;80.81;100125.75;6216350;22;20011;-62
2022/05/24 03:28:19;;;;;;;28.38;9.98;;;;;;;14.21;81.23;100130.50;6239619;22;20370;-63
2022/05/24 03:30:45;;;;;;;19.73;9.27;;;;;;;14.22;81.00;100133.03;6268547;22;20086;-64
2022/05/24 03:33:11;;;;;;;19.80;9.93;;;;;;;14.26;80.81;100134.56;6214773;22;20034;-63
2022/05/24 03:35:36;;;;;;;26.75;9.65;;;;;;;14.25;81.07;100142.59;6267329;22;20086;-63
2022/05/24 03:38:02;;;;;;;23.52;9.27;;;;;;;14.22;81.25;100154.25;6267462;22;20000;-64
2022/05/24 03:40:27;;;;;;;18.98;9.13;;;;;;;14.27;81.12;100152.16;6268453;22;20008;-63
2022/05/24 03:42:54;;;;;;;26.13;9.82;;;;;;;14.24;81.16;100154.16;6266049;22;20039;-63
2022/05/24 03:45:20;;;;;;;22.50;8.63;;;;;;;14.31;80.87;100152.81;6215058;22;20004;-63
2022/05/24 03:47:45;;;;;;;21.33;8.18;;;;;;;14.34;80.76;100162.38;6267736;22;20098;-63
2022/05/24 03:50:11;;;;;;;20.67;7.53;;;;;;;14.33;80.85;100161.53;6267004;22;20098;-64
2022/05/24 03:52:37;;;;;;;17.98;8.18;;;;;;;14.32;80.86;100165.13;6267565;22;20004;-63
2022/05/24 03:55:03;;;;;;;21.58;7.78;;;;;;;14.34;81.22;100168.53;6266803;22;19995;-63
2022/05/24 04:00:14;;;;;;;22.15;8.75;;;;;;;14.45;80.58;100190.91;6267526;22;20517;-63
2022/05/24 04:02:39;;;;;;;22.98;8.80;;;;;;;14.32;80.93;100199.56;6268510;22;20003;-62
2022/05/24 04:05:05;;;;;;;25.58;9.10;;;;;;;14.46;80.41;100204.06;6239385;22;20384;-63
2022/05/24 04:07:30;;;;;;;23.95;8.52;;;;;;;14.55;79.84;100201.78;6240903;22;20020;-63
2022/05/24 04:09:56;;;;;;;16.38;7.35;;;;;;;14.59;79.96;100190.03;6267547;22;20014;-63
2022/05/24 04:12:21;;;;;;;22.50;8.25;;;;;;;14.69;79.39;100198.28;6240209;22;20010;-63
2022/05/24 04:14:46;;;;;;;17.63;8.43;;;;;;;14.69;80.15;100200.94;6265872;22;20007;-63
2022/05/24 04:17:12;;;;;;;17.10;8.63;;;;;;;14.57;80.13;100190.13;6266440;22;20018;-63
2022/05/24 04:19:37;;;;;;;23.67;9.77;;;;;;;14.57;80.17;100184.00;6267221;22;20004;-62
2022/05/24 04:22:02;;;;;;;18.73;9.38;;;;;;;14.55;80.56;100197.34;6267547;22;20329;-63
2022/05/24 04:24:28;;;;;;;21.55;10.48;;;;;;;14.43;80.15;100187.47;6268355;22;20451;-62
2022/05/24 04:26:53;;;;;;;21.45;9.65;;;;;;;14.41;80.62;100198.16;6265682;22;20007;-62
2022/05/24 04:29:18;;;;;;;21.70;10.23;;;;;;;14.39;80.74;100186.81;6266591;22;20348;-62
2022/05/24 04:31:44;;;;;;;27.67;10.02;;;;;;;14.34;80.53;100187.09;6267760;22;20008;-63
2022/05/24 04:34:09;;;;;;;25.08;9.52;;;;;;;14.19;80.78;100194.16;6267297;22;19999;-64
2022/05/24 04:36:34;;;;;;;16.33;8.25;;;;;;;14.30;80.56;100193.50;6267861;22;20444;-64
2022/05/24 04:39:00;;;;;;;18.10;8.00;;;;;;;14.41;80.43;100195.50;6268217;22;20028;-62
2022/05/24 04:44:09;;;;;;;23.70;7.53;;;;;;;14.44;80.08;100191.81;6265615;22;20065;-63
2022/05/24 04:49:20;;;;;;;17.17;6.15;;;;;;;14.35;80.16;100196.75;6267664;22;20135;-65
2022/05/24 04:51:46;;;;;;;12.80;5.40;;;;;;;14.47;79.81;100168.63;6265902;22;20004;-65
2022/05/24 04:54:11;;;;;;;14.98;6.00;;;;;;;14.42;79.60;100183.97;6266474;22;20014;-64
2022/05/24 04:56:37;;;;;;;13.57;5.35;;;;;;;14.41;79.47;100190.22;6266631;22;20007;-64
2022/05/24 04:59:02;;;;;;;12.20;4.43;;;;;;;14.43;79.18;100193.63;6266420;22;20003;-65
2022/05/24 05:01:28;;;;;;;17.38;5.20;;;;;;;14.44;79.08;100199.75;6239147;22;20042;-65
2022/05/24 05:03:53;;;;;;;16.42;5.13;;;;;;;14.25;79.35;100206.19;6265033;22;20082;-64
2022/05/24 05:06:18;;;;;;;14.88;4.60;;;;;;;14.11;79.26;100199.06;6264932;22;20083;-63
2022/05/24 05:08:44;;;;;;;9.00;4.75;;;;;;;14.10;79.03;100206.16;6266225;22;20382;-64
2022/05/24 05:11:09;;;;;;;10.15;4.30;;;;;;;14.07;79.18;100214.28;6266497;22;19999;-63
2022/05/24 05:13:35;;;;;;;15.55;5.18;;;;;;;14.05;79.38;100232.06;6265926;22;20000;-63
2022/05/24 05:16:00;;;;;;;16.75;4.95;;;;;;;13.98;79.57;100236.88;6214378;22;20015;-64
2022/05/24 05:18:26;;;;;;;13.32;4.45;;;;;;;13.95;79.90;100237.03;6267025;22;20155;-64
2022/05/24 05:20:51;;;;;;;14.32;4.40;;;;;;;14.05;79.57;100241.81;6266222;22;20336;-63
2022/05/24 05:23:17;;;;;;;16.63;4.30;;;;;;;14.12;78.65;100241.34;6267248;22;20000;-65
2022/05/24 05:25:47;;;;;;;17.38;4.28;;;;;;;14.14;78.30;100239.47;6266683;22;20740;-63
2022/05/24 05:28:13;;;;;;;13.73;4.68;;;;;;;14.08;78.55;100238.97;6239341;22;20014;-64
2022/05/24 05:33:22;;;;;;;11.70;3.83;;;;;;;13.94;79.19;100239.78;6266574;22;20022;-64
2022/05/24 05:35:47;;;;;;;13.65;4.20;;;;;;;14.01;78.77;100254.38;6266660;22;20505;-63
2022/05/24 05:38:13;;;;;;;16.55;4.55;;;;;;;13.98;78.63;100254.56;6266216;22;20011;-63
2022/05/24 05:40:39;;;;;;;12.10;4.22;;;;;;;13.97;78.14;100252.84;6266173;22;19999;-64
2022/05/24 05:43:04;;;;;;;13.07;3.90;;;;;;;13.90;78.76;100260.28;6265753;22;20358;-63
2022/05/24 05:45:29;;;;;;;10.63;3.83;;;;;;;13.96;78.23;100264.38;6265431;22;20077;-63
2022/05/24 05:47:55;;;;;;;18.20;4.03;;;;;;;14.00;78.26;100260.63;6264572;22;20007;-65
2022/05/24 05:50:21;;;;;;;9.98;3.75;;;;;;;14.13;77.81;100266.06;6266227;22;20692;-63
2022/05/24 05:52:47;;;;;;;9.02;3.45;;;;;;;14.06;77.47;100265.53;6266406;22;20320;-62
2022/05/24 05:55:12;;;;;;;13.43;4.35;;;;;;;14.12;76.96;100270.50;6266017;22;20414;-65
2022/05/24 05:57:39;;;;;;;10.25;3.90;;;;;;;14.38;76.55;100284.03;6265591;22;20031;-64
2022/05/24 06:00:05;;;;;;;9.55;4.65;;;;;;;14.47;75.88;100284.41;6265802;22;20475;-63
2022/05/24 06:02:31;;;;;;;12.48;5.10;;;;;;;14.57;75.51;100268.81;6239442;22;20004;-64
2022/05/24 06:04:56;;;;;;;9.05;4.65;;;;;;;14.64;76.05;100278.13;6266486;22;20008;-62
2022/05/24 06:07:23;;;;;;;12.48;5.10;;;;;;;14.91;75.15;100270.28;6264782;22;20023;-62
2022/05/24 06:09:49;;;;;;;10.98;5.28;;;;;;;15.11;73.92;100278.81;6265931;22;20555;-65
2022/05/24 06:12:14;;;;;;;13.25;5.53;;;;;;;15.26;72.87;100290.28;6262946;22;20395;-62
2022/05/24 06:14:40;;;;;;;17.58;5.85;;;;;;;15.26;72.89;100286.78;6264094;22;20012;-64
2022/05/24 06:17:05;;;;;;;16.17;5.63;;;;;;;15.49;71.75;100285.34;6267681;22;20006;-62
2022/05/24 06:19:31;;;;;;;8.50;4.35;;;;;;;15.61;71.51;100291.66;6268273;22;20440;-63
2022/05/24 06:21:56;;;;;;;8.98;5.10;;;;;;;15.82;70.36;100291.22;6267952;22;20011;-64
2022/05/24 06:24:21;;;;;;;9.63;4.57;;;;;;;15.77;71.22;100301.28;6268128;22;20052;-63
2022/05/24 06:26:49;;;;;;;10.57;4.05;;;;;;;15.98;70.35;100299.06;6268679;22;20276;-63
2022/05/24 06:29:14;;;;;;;9.05;4.10;;;;;;;15.78;70.25;100303.84;6266320;22;20004;-63
2022/05/24 06:31:42;;;;;;;11.25;4.30;;;;;;;15.82;70.37;100304.50;6267694;22;20011;-63
2022/05/24 06:34:07;;;;;;;8.90;4.20;;;;;;;15.82;70.38;100312.47;6266984;22;20395;-63
2022/05/24 06:36:32;;;;;;;7.20;3.70;;;;;;;15.77;69.89;100311.91;6270153;22;20082;-65
2022/05/24 06:38:58;;;;;;;6.35;3.47;;;;;;;15.59;69.99;100314.78;6268897;22;20007;-64
2022/05/24 06:41:23;;;;;;;10.30;3.90;;;;;;;15.60;70.88;100318.31;6268373;22;20006;-63
2022/05/24 06:43:48;;;;;;;9.98;3.95;;;;;;;15.39;72.05;100322.22;6267877;22;20027;-61
2022/05/24 06:46:14;;;;;;;10.25;3.90;;;;;;;15.16;73.05;100329.81;6267542;22;20000;-63
2022/05/24 06:48:42;;;;;;;8.10;4.20;;;;;;;15.15;74.13;100335.22;6268506;22;20003;-62
2022/05/24 06:51:15;;;;;;;6.40;3.55;;;;;;;14.95;75.33;100345.25;6267707;22;20329;-62
2022/05/24 06:53:43;;;;;;;6.97;3.13;;;;;;;14.89;75.44;100364.16;6268365;22;20446;-62
2022/05/24 06:56:09;;;;;;;5.75;2.67;;;;;;;14.88;75.25;100339.47;6267149;22;20046;-61
2022/05/24 06:58:34;;;;;;;9.25;2.92;;;;;;;14.90;74.91;100340.22;6268559;22;20720;-63
2022/05/24 07:03:45;;;;;;;8.23;2.72;;;;;;;14.75;76.07;100359.69;6267742;22;20020;-63
2022/05/24 07:06:12;;;;;;;5.65;2.63;;;;;;;14.68;76.14;100360.97;6267922;22;20004;-62
2022/05/24 07:08:45;;;;;;;6.18;2.47;;;;;;;14.63;76.50;100358.59;6267259;22;20092;-63
2022/05/24 07:11:11;;;;;;;5.60;2.38;;;;;;;14.47;76.47;100356.84;6267333;22;20442;-63
2022/05/24 07:13:37;;;;;;;7.95;2.20;;;;;;;14.46;77.18;100367.53;6265357;22;20019;-63
2022/05/24 07:16:03;;;;;;;5.50;2.70;;;;;;;14.39;77.41;100369.69;6265174;22;20003;-63
2022/05/24 07:18:28;;;;;;;5.25;2.47;;;;;;;14.29;77.59;100377.31;6267615;22;20008;-64
2022/05/24 07:20:53;;;;;;;5.00;2.83;;;;;;;14.25;77.76;100383.72;6266298;22;20007;-63
2022/05/24 07:23:21;;;;;;;10.45;2.95;;;;;;;14.13;77.96;100383.50;6240434;22;20069;-63
2022/05/24 07:25:47;;;;;;;8.75;3.42;;;;;;;14.03;78.83;100398.19;6267515;22;20011;-61
2022/05/24 07:28:17;;;;;;;5.50;2.38;;;;;;;14.02;78.85;100396.47;6265833;22;20039;-62
2022/05/24 07:30:44;;;;;;;8.40;2.28;;;;;;;14.16;78.12;100398.34;6266606;22;19999;-64
2022/05/24 07:33:10;;;;;;;4.22;1.85;;;;;;;14.27;77.89;100400.41;6267370;22;20031;-63
2022/05/24 07:35:35;;;;;;;2.78;1.60;;;;;;;14.40;77.08;100395.25;6267158;22;20367;-65
2022/05/24 07:38:01;;;;;;;4.40;1.73;;;;;;;14.21;77.83;100400.75;6241223;22;20008;-63
2022/05/24 07:45:58;;;;;;;5.65;1.80;;;;;;;14.03;79.15;100409.63;6266057;22;20018;-63
2022/05/24 07:48:23;;;;;;;3.70;1.60;;;;;;;14.02;78.89;100412.34;6267212;22;20081;-63
2022/05/24 07:50:50;;;;;;;3.17;1.52;;;;;;;14.23;78.63;100414.75;6266230;22;20428;-62
2022/05/24 07:53:16;;;;;;;3.00;1.55;;;;;;;14.33;78.22;100421.22;6266740;22;20383;-63
2022/05/24 07:55:42;;;;;;;3.40;1.40;;;;;;;14.48;77.40;100414.19;6267097;22;20075;-62
2022/05/24 07:58:07;;;;;;;6.43;1.42;;;;;;;14.64;76.08;100419.50;6264553;22;20091;-62
2022/05/24 08:00:33;;;;;;;3.30;1.48;;;;;;;15.16;75.10;100425.34;6266891;22;20023;-63
2022/05/24 08:02:58;;;;;;;5.82;1.30;;;;;;;15.57;74.53;100420.28;6267144;22;20424;-63
2022/05/24 08:05:24;;;;;;;3.67;1.25;;;;;;;15.76;72.21;100416.44;6265054;22;20007;-62
2022/05/24 08:07:50;;;;;;;2.28;0.80;;;;;;;15.98;70.50;100423.13;6265614;22;20047;-63
2022/05/24 08:10:17;;;;;;;6.15;1.30;;;;;;;15.82;70.07;100437.31;6265910;22;20087;-65
2022/05/24 08:12:42;;;;;;;1.17;0.73;;;;;;;15.80;70.83;100433.91;6265984;22;20428;-62
2022/05/24 08:15:09;;;;;;;5.43;1.27;;;;;;;15.90;70.23;100428.88;6265699;22;20087;-62
2022/05/24 08:17:34;;;;;;;3.60;0.80;;;;;;;16.31;70.29;100432.50;6266680;22;20003;-62
2022/05/24 08:20:00;;;;;;;2.50;1.10;;;;;;;16.67;68.16;100430.19;6266697;22;20388;-64
2022/05/24 08:22:25;;;;;;;3.30;1.00;;;;;;;16.68;67.72;100442.56;6264868;22;20441;-63
2022/05/24 08:24:51;;;;;;;4.30;1.10;;;;;;;16.50;67.41;100440.13;6266281;22;20083;-64
2022/05/24 08:27:16;;;;;;;7.15;1.20;;;;;;;16.10;67.64;100454.22;6264332;22;20014;-61
2022/05/24 08:29:42;;;;;;;4.45;1.20;;;;;;;15.95;68.97;100458.66;6266511;22;20040;-62
2022/05/24 08:32:07;;;;;;;4.78;1.40;;;;;;;15.77;70.48;100461.50;6265681;22;20444;-62
2022/05/24 08:34:33;;;;;;;2.58;1.00;;;;;;;15.87;70.79;100461.78;6239373;22;20328;-63
2022/05/24 08:36:59;;;;;;;1.58;0.98;;;;;;;15.69;71.19;100471.78;6265685;22;20007;-64
2022/05/24 08:39:25;;;;;;;5.85;1.27;;;;;;;15.69;72.09;100476.22;6240026;22;20324;-63
2022/05/24 08:42:10;;;;;;;3.65;1.15;;;;;;;15.70;73.02;100476.13;6264560;22;20071;-63
2022/05/24 08:50:13;;;;;;;;;;;;;;;15.73;71.46;100496.31;6243657;22;20019;-63
2022/05/24 08:52:43;;;;;;;5.25;1.50;;;;;;;15.97;70.91;100494.00;6265319;22;19895;-63
2022/05/24 08:55:10;;;;;;;2.25;1.42;;;;;;;15.95;71.62;100495.84;6239691;22;20024;-63
2022/05/24 08:57:42;;;;;;;3.55;1.50;;;;;;;16.23;70.60;100493.31;6237440;22;20011;-63
2022/05/24 09:00:14;;;;;;;4.25;1.23;;;;;;;16.41;70.70;100493.94;6265883;22;20459;-63
2022/05/24 09:02:44;;;;;;;2.65;1.52;;;;;;;16.49;68.80;100509.38;6237754;22;20003;-65
2022/05/24 09:05:13;;;;;;;;;;;;;;;16.70;69.21;100507.13;6240629;22;20007;-63
2022/05/24 09:07:45;;;;;;;7.18;1.80;;;;;;;16.31;66.42;100525.56;6265686;22;19914;-63
2022/05/24 09:10:19;;;;;;;3.30;1.63;;;;;;;16.05;66.64;100525.41;6239483;22;19996;-63
2022/05/24 09:12:53;;;;;;;5.68;1.48;;;;;;;16.00;67.23;100538.13;6238640;22;20034;-65
2022/05/24 09:15:34;;;;;;;2.05;1.20;;;;;;;16.12;66.63;100548.00;6266213;22;20003;-64
2022/05/24 09:18:24;;;;;;;2.90;1.30;;;;;;;16.13;66.69;100541.72;6266067;22;20003;-64
2022/05/24 09:20:50;;;;;;;4.15;1.10;;;;;;;15.85;66.32;100531.91;6242905;22;20106;-63
2022/05/24 09:23:21;;;;;;;1.55;1.00;;;;;;;15.69;66.28;100542.63;6237564;22;20023;-62
2022/05/24 09:25:58;;;;;;;2.65;1.20;;;;;;;15.39;67.09;100555.81;6265610;22;20007;-62
2022/05/24 09:28:42;;;;;;;4.00;1.20;;;;;;;15.25;67.27;100561.09;6263105;22;20457;-62
2022/05/24 09:31:09;;;;;;;1.85;1.00;;;;;;;15.10;67.45;100561.03;6266007;22;20004;-62
2022/05/24 09:33:39;;;;;;;3.35;1.10;;;;;;;15.08;68.57;100564.75;6237819;22;20424;-63
2022/05/24 09:36:05;;;;;;;5.43;1.20;;;;;;;14.69;69.67;100574.81;6264883;22;20004;-64
2022/05/24 09:38:36;;;;;;;1.70;1.25;;;;;;;14.52;70.53;100581.91;6238128;22;20069;-63
2022/05/24 09:41:15;;;;;;;2.88;1.20;;;;;;;14.59;71.51;100580.63;6265400;22;20426;-65
2022/05/24 09:43:40;;;;;;;1.65;1.25;;;;;;;14.63;72.76;100582.16;6264419;22;20007;-64
2022/05/24 09:46:18;;;;;;;3.03;1.63;;;;;;;14.91;72.61;100583.31;6265169;22;20007;-62
2022/05/24 09:48:57;;;;;;;4.47;1.58;;;;;;;15.27;71.88;100588.41;6264552;22;20471;-64
2022/05/24 09:51:27;;;;;;;2.38;1.40;;;;;;;15.74;70.59;100583.06;6237950;22;20000;-63
2022/05/24 09:53:54;;;;;;;2.70;1.40;;;;;;;16.12;68.86;100585.22;6264754;22;20329;-64
2022/05/24 09:56:21;;;;;;;4.35;1.50;;;;;;;16.32;68.01;100596.41;6264700;22;20444;-63
2022/05/24 09:58:54;;;;;;;4.38;1.52;;;;;;;16.51;68.02;100601.44;6236799;22;20558;-63
2022/05/24 10:01:43;;;;;;;7.05;1.70;;;;;;;16.72;65.94;100605.47;6265612;22;20006;-64
2022/05/24 10:04:40;;;;;;;;;;;;;;;16.54;65.24;100619.00;6266253;22;20111;-61
2022/05/24 10:07:20;;;;;;;8.05;1.60;;;;;;;15.98;66.42;100607.28;6246011;22;19938;-65
2022/05/24 10:10:07;;;;;;;4.43;1.50;;;;;;;16.03;66.51;100620.31;6265722;22;20309;-64
2022/05/24 10:12:46;;;;;;;4.88;1.52;;;;;;;16.36;66.02;100621.84;6264306;22;20408;-66
2022/05/24 10:15:29;;;;;;;4.60;1.65;;;;;;;16.76;65.26;100629.13;6238191;22;20042;-64
2022/05/24 10:18:17;;;;;;;4.05;2.00;;;;;;;17.02;64.62;100636.38;6265589;22;20000;-65
2022/05/24 10:20:47;;;;;;;5.77;1.77;;;;;;;17.00;62.75;100615.19;6253151;22;20004;-63
2022/05/24 10:23:24;;;;;;;5.35;1.35;;;;;;;17.18;62.75;100634.47;6264843;22;20219;-63
2022/05/24 10:25:56;;;;;;;4.95;1.48;;;;;;;17.72;62.32;100636.31;6239288;22;20004;-63
2022/05/24 10:28:39;;;;;;;6.55;1.77;;;;;;;17.67;61.18;100644.66;6264735;22;20366;-63
2022/05/24 10:31:20;;;;;;;6.43;1.58;;;;;;;17.36;59.89;100639.53;6265557;22;19999;-65
2022/05/24 10:39:50;;;;;;;5.45;1.30;;;;;;;17.68;59.28;100643.69;6242399;22;20065;-62
2022/05/24 10:42:20;;;;;;;5.72;1.60;;;;;;;17.83;58.71;100648.94;6237489;22;19999;-60
2022/05/24 10:44:48;;;;;;;4.95;1.40;;;;;;;18.04;57.90;100638.63;6238979;22;20032;-62
2022/05/24 10:47:22;;;;;;;3.35;1.70;;;;;;;17.95;59.08;100648.09;6264869;22;20027;-62
2022/05/24 10:49:51;;;;;;;4.05;1.15;;;;;;;17.71;57.82;100646.16;6266296;22;20082;-64
2022/05/24 10:52:28;;;;;;;3.33;1.10;;;;;;;17.67;56.83;100653.47;6239080;22;20015;-62
2022/05/24 10:54:58;;;;;;;2.22;1.23;;;;;;;17.67;57.37;100645.47;6265803;22;20011;-62
2022/05/24 10:57:29;;;;;;;3.40;1.05;;;;;;;17.62;57.27;100678.72;6238737;22;20424;-62
2022/05/24 11:00:03;;;;;;;3.72;1.30;;;;;;;17.54;58.48;100660.56;6238678;22;20359;-64
2022/05/24 11:02:44;;;;;;;3.22;1.35;;;;;;;17.72;59.99;100649.63;6266512;22;20000;-64
2022/05/24 11:05:18;;;;;;;6.97;1.50;;;;;;;18.01;57.20;100657.47;6240501;22;20567;-62
2022/05/24 11:07:43;;;;;;;5.10;1.13;;;;;;;18.41;57.12;100660.09;6267567;22;20011;-62
2022/05/24 11:10:14;;;;;;;4.18;1.10;;;;;;;18.41;56.89;100643.22;6240494;22;20479;-63
2022/05/24 11:12:45;;;;;;;3.28;1.10;;;;;;;17.96;56.37;100673.78;6267497;22;20023;-64
2022/05/24 11:15:20;;;;;;;5.68;1.25;;;;;;;17.50;58.15;100672.41;6214581;22;20027;-63
2022/05/24 11:17:46;;;;;;;3.63;1.00;;;;;;;17.65;58.80;100674.06;6268254;22;20004;-64
2022/05/24 11:20:12;;;;;;;5.82;1.42;;;;;;;17.80;57.52;100671.31;6239639;22;20400;-63
2022/05/24 11:22:46;;;;;;;5.45;1.40;;;;;;;17.52;57.93;100678.50;6240335;22;20007;-62
2022/05/24 11:25:19;;;;;;;3.58;1.25;;;;;;;17.25;58.00;100671.34;6237596;22;20069;-63
2022/05/24 11:28:04;;;;;;;6.45;1.50;;;;;;;17.37;58.50;100683.00;6266311;22;20042;-64
2022/05/24 11:30:29;;;;;;;3.47;1.45;;;;;;;17.90;56.81;100680.41;6244365;22;20152;-65
2022/05/24 11:33:07;;;;;;;5.83;1.60;;;;;;;18.17;56.65;100682.16;6267368;22;20082;-63
2022/05/24 11:35:36;;;;;;;4.65;1.40;;;;;;;18.43;57.06;100674.16;6266123;22;20563;-64
2022/05/24 11:38:23;;;;;;;2.83;1.20;;;;;;;18.67;54.91;100680.56;6265507;22;20011;-63
2022/05/24 11:40:54;;;;;;;5.30;1.20;;;;;;;18.78;54.27;100680.63;6265589;22;20008;-64
2022/05/24 11:43:34;;;;;;;1.52;1.13;;;;;;;18.93;52.51;100700.03;6265670;22;20339;-62
2022/05/24 11:46:07;;;;;;;2.35;1.10;;;;;;;18.62;53.11;100696.00;6266654;22;20285;-62
2022/05/24 11:48:42;;;;;;;3.70;1.33;;;;;;;18.48;53.42;100697.00;6266412;22;20011;-62
2022/05/24 11:51:44;;;;;;;7.47;1.65;;;;;;;18.12;53.59;100696.78;6266093;22;20000;-62
2022/05/24 11:54:15;;;;;;;3.83;1.42;;;;;;;18.09;53.73;100708.44;6239113;22;20538;-63
2022/05/24 11:56:51;;;;;;;3.88;1.27;;;;;;;18.10;54.10;100704.88;6264633;22;20006;-65
2022/05/24 11:59:49;;;;;;;3.38;1.20;;;;;;;18.06;54.44;100695.31;6266582;22;20007;-65
2022/05/24 12:02:26;;;;;;;2.17;1.10;;;;;;;18.31;53.21;100705.19;6265395;22;20437;-64
2022/05/24 12:08:07;;;;;;;3.65;0.90;;;;;;;18.89;49.74;100697.69;6265781;22;20461;-62
2022/05/24 12:11:02;;;;;;;1.85;1.00;;;;;;;19.53;48.24;100706.47;6238336;22;20344;-62
2022/05/24 12:13:31;;;;;;;1.50;0.63;;;;;;;19.91;46.43;100716.13;6217752;22;20028;-63
2022/05/24 12:16:01;;;;;;;0.98;0.40;;;;;;;19.93;46.40;100718.69;6240793;22;19995;-63
2022/05/24 12:18:52;;;;;;;2.58;0.70;;;;;;;19.70;46.15;100732.81;6238922;22;20436;-64